sensor_id;sensor_type;location;lat;lon;timestamp;pressure;altitude;pressure_sealevel;temperature;humidity
20156;BME280;10238;49.556;10.956;2023-06-10T00:00:39;98030.75;;;15.92;100.00
20156;BME280;10238;49.556;10.956;2023-06-10T00:03:28;98032.78;;;15.90;100.00
20156;BME280;10238;49.556;10.956;2023-06-10T00:06:16;98033.38;;;15.85;100.00
20156;BME280;10238;49.556;10.956;2023-06-10T00:09:05;98031.28;;;15.81;100.00
20156;BME280;10238;49.556;10.956;2023-06-10T00:11:54;98033.34;;;15.79;100.00
20156;BME280;10238;49.556;10.956;2023-06-10T00:14:41;98027.72;;;15.74;100.00
20156;BME280;10238;49.556;10.956;2023-06-10T00:17:31;98021.59;;;15.80;100.00
20156;BME280;10238;49.556;10.956;2023-06-10T00:20:18;98039.72;;;15.78;100.00
20156;BME280;10238;49.556;10.956;2023-06-10T00:23:10;98036.81;;;15.73;100.00
20156;BME280;10238;49.556;10.956;2023-06-10T00:25:58;98030.19;;;15.69;100.00
20156;BME280;10238;49.556;10.956;2023-06-10T00:28:46;98035.94;;;15.66;100.00
20156;BME280;10238;49.556;10.956;2023-06-10T00:31:34;98031.34;;;15.60;100.00
20156;BME280;10238;49.556;10.956;2023-06-10T00:34:24;98037.84;;;15.51;100.00
20156;BME280;10238;49.556;10.956;2023-06-10T00:37:12;98039.09;;;15.48;100.00
20156;BME280;10238;49.556;10.956;2023-06-10T00:40:00;98042.53;;;15.42;100.00
20156;BME280;10238;49.556;10.956;2023-06-10T00:42:47;98049.66;;;15.35;100.00
20156;BME280;10238;49.556;10.956;2023-06-10T00:45:35;98039.31;;;15.32;100.00
20156;BME280;10238;49.556;10.956;2023-06-10T00:48:24;98045.88;;;15.30;100.00
20156;BME280;10238;49.556;10.956;2023-06-10T00:51:15;98046.06;;;15.28;100.00
20156;BME280;10238;49.556;10.956;2023-06-10T00:54:05;98041.47;;;15.22;100.00
20156;BME280;10238;49.556;10.956;2023-06-10T00:56:53;98042.13;;;15.24;100.00
20156;BME280;10238;49.556;10.956;2023-06-10T00:59:47;98035.69;;;15.18;100.00
20156;BME280;10238;49.556;10.956;2023-06-10T01:02:35;98033.38;;;15.15;100.00
20156;BME280;10238;49.556;10.956;2023-06-10T01:05:24;98026.31;;;15.08;100.00
20156;BME280;10238;49.556;10.956;2023-06-10T01:08:22;98028.94;;;15.01;100.00
20156;BME280;10238;49.556;10.956;2023-06-10T01:11:23;98037.34;;;14.98;100.00
20156;BME280;10238;49.556;10.956;2023-06-10T01:14:13;98029.03;;;14.93;100.00
20156;BME280;10238;49.556;10.956;2023-06-10T01:17:02;98029.59;;;14.89;100.00
20156;BME280;10238;49.556;10.956;2023-06-10T01:19:54;98036.78;;;14.88;100.00
20156;BME280;10238;49.556;10.956;2023-06-10T01:22:44;98034.00;;;14.96;100.00
20156;BME280;10238;49.556;10.956;2023-06-10T01:25:32;98038.97;;;14.99;100.00
20156;BME280;10238;49.556;10.956;2023-06-10T01:28:31;98036.03;;;14.94;100.00
20156;BME280;10238;49.556;10.956;2023-06-10T01:31:31;98037.19;;;14.85;100.00
20156;BME280;10238;49.556;10.956;2023-06-10T01:34:24;98039.13;;;14.77;100.00
20156;BME280;10238;49.556;10.956;2023-06-10T01:37:19;98033.34;;;14.73;100.00
20156;BME280;10238;49.556;10.956;2023-06-10T01:40:11;98039.97;;;14.77;100.00
20156;BME280;10238;49.556;10.956;2023-06-10T01:43:00;98041.00;;;14.76;100.00
20156;BME280;10238;49.556;10.956;2023-06-10T01:45:47;98044.66;;;14.75;100.00
20156;BME280;10238;49.556;10.956;2023-06-10T01:48:37;98038.31;;;14.76;100.00
20156;BME280;10238;49.556;10.956;2023-06-10T01:51:25;98040.72;;;14.71;100.00
20156;BME280;10238;49.556;10.956;2023-06-10T01:54:13;98043.16;;;14.66;100.00
20156;BME280;10238;49.556;10.956;2023-06-10T01:57:02;98042.22;;;14.59;100.00
20156;BME280;10238;49.556;10.956;2023-06-10T01:59:50;98037.81;;;14.52;100.00
20156;BME280;10238;49.556;10.956;2023-06-10T02:02:37;98048.25;;;14.47;100.00
20156;BME280;10238;49.556;10.956;2023-06-10T02:05:25;98051.09;;;14.45;100.00
20156;BME280;10238;49.556;10.956;2023-06-10T02:08:12;98038.75;;;14.44;100.00
20156;BME280;10238;49.556;10.956;2023-06-10T02:11:01;98037.72;;;14.45;100.00
20156;BME280;10238;49.556;10.956;2023-06-10T02:13:50;98037.91;;;14.44;100.00
20156;BME280;10238;49.556;10.956;2023-06-10T02:16:38;98037.63;;;14.39;100.00
20156;BME280;10238;49.556;10.956;2023-06-10T02:19:25;98036.91;;;14.30;100.00
20156;BME280;10238;49.556;10.956;2023-06-10T02:22:14;98031.50;;;14.24;100.00
20156;BME280;10238;49.556;10.956;2023-06-10T02:25:01;98030.28;;;14.26;100.00
20156;BME280;10238;49.556;10.956;2023-06-10T02:27:50;98033.78;;;14.41;100.00
20156;BME280;10238;49.556;10.956;2023-06-10T02:30:41;98029.06;;;14.43;100.00
20156;BME280;10238;49.556;10.956;2023-06-10T02:33:29;98033.88;;;14.33;100.00
20156;BME280;10238;49.556;10.956;2023-06-10T02:36:17;98036.34;;;14.20;100.00
20156;BME280;10238;49.556;10.956;2023-06-10T02:39:05;98045.28;;;14.13;100.00
20156;BME280;10238;49.556;10.956;2023-06-10T02:41:53;98050.53;;;14.06;100.00
20156;BME280;10238;49.556;10.956;2023-06-10T02:44:40;98050.91;;;14.03;100.00
20156;BME280;10238;49.556;10.956;2023-06-10T02:47:29;98058.94;;;14.03;100.00
20156;BME280;10238;49.556;10.956;2023-06-10T02:50:17;98059.09;;;14.02;100.00
20156;BME280;10238;49.556;10.956;2023-06-10T02:53:05;98068.31;;;13.99;100.00
20156;BME280;10238;49.556;10.956;2023-06-10T02:55:53;98067.31;;;14.00;100.00
20156;BME280;10238;49.556;10.956;2023-06-10T02:58:40;98059.34;;;13.92;100.00
20156;BME280;10238;49.556;10.956;2023-06-10T03:01:28;98058.91;;;13.89;100.00
20156;BME280;10238;49.556;10.956;2023-06-10T03:04:19;98065.44;;;13.86;100.00
20156;BME280;10238;49.556;10.956;2023-06-10T03:07:07;98064.81;;;13.84;100.00
20156;BME280;10238;49.556;10.956;2023-06-10T03:09:57;98062.50;;;13.81;100.00
20156;BME280;10238;49.556;10.956;2023-06-10T03:12:44;98061.22;;;13.77;100.00
20156;BME280;10238;49.556;10.956;2023-06-10T03:15:32;98055.19;;;13.75;100.00
20156;BME280;10238;49.556;10.956;2023-06-10T03:18:20;98059.25;;;13.71;100.00
20156;BME280;10238;49.556;10.956;2023-06-10T03:21:10;98052.41;;;13.69;100.00
20156;BME280;10238;49.556;10.956;2023-06-10T03:23:58;98049.13;;;13.67;100.00
20156;BME280;10238;49.556;10.956;2023-06-10T03:26:46;98051.97;;;13.65;100.00
20156;BME280;10238;49.556;10.956;2023-06-10T03:29:34;98048.63;;;13.63;100.00
20156;BME280;10238;49.556;10.956;2023-06-10T03:32:22;98056.09;;;13.68;100.00
20156;BME280;10238;49.556;10.956;2023-06-10T03:35:10;98058.97;;;13.66;100.00
20156;BME280;10238;49.556;10.956;2023-06-10T03:37:59;98062.28;;;13.68;100.00
20156;BME280;10238;49.556;10.956;2023-06-10T03:40:47;98062.84;;;13.78;100.00
20156;BME280;10238;49.556;10.956;2023-06-10T03:43:35;98065.34;;;13.80;100.00
20156;BME280;10238;49.556;10.956;2023-06-10T03:46:22;98067.47;;;13.84;100.00
20156;BME280;10238;49.556;10.956;2023-06-10T03:49:10;98069.31;;;13.84;100.00
20156;BME280;10238;49.556;10.956;2023-06-10T03:51:58;98070.31;;;13.83;100.00
20156;BME280;10238;49.556;10.956;2023-06-10T03:54:47;98068.19;;;13.78;100.00
20156;BME280;10238;49.556;10.956;2023-06-10T03:57:35;98074.38;;;13.79;100.00
20156;BME280;10238;49.556;10.956;2023-06-10T04:00:22;98067.66;;;13.83;100.00
20156;BME280;10238;49.556;10.956;2023-06-10T04:03:11;98073.53;;;13.78;100.00
20156;BME280;10238;49.556;10.956;2023-06-10T04:06:01;98066.53;;;13.77;100.00
20156;BME280;10238;49.556;10.956;2023-06-10T04:08:49;98066.19;;;13.80;100.00
20156;BME280;10238;49.556;10.956;2023-06-10T04:11:38;98061.84;;;13.79;100.00
20156;BME280;10238;49.556;10.956;2023-06-10T04:14:25;98059.09;;;13.87;100.00
20156;BME280;10238;49.556;10.956;2023-06-10T04:17:14;98056.50;;;13.94;100.00
20156;BME280;10238;49.556;10.956;2023-06-10T04:20:02;98056.31;;;13.95;100.00
20156;BME280;10238;49.556;10.956;2023-06-10T04:22:53;98062.78;;;14.01;100.00
20156;BME280;10238;49.556;10.956;2023-06-10T04:25:40;98062.16;;;13.99;100.00
20156;BME280;10238;49.556;10.956;2023-06-10T04:28:29;98052.66;;;13.96;100.00
20156;BME280;10238;49.556;10.956;2023-06-10T04:31:17;98056.25;;;14.03;100.00
20156;BME280;10238;49.556;10.956;2023-06-10T04:34:06;98054.22;;;14.05;100.00
20156;BME280;10238;49.556;10.956;2023-06-10T04:36:54;98046.84;;;14.07;100.00
20156;BME280;10238;49.556;10.956;2023-06-10T04:39:42;98045.38;;;14.19;100.00
20156;BME280;10238;49.556;10.956;2023-06-10T04:42:29;98054.16;;;14.28;100.00
20156;BME280;10238;49.556;10.956;2023-06-10T04:45:18;98059.81;;;14.33;100.00
20156;BME280;10238;49.556;10.956;2023-06-10T04:48:06;98053.59;;;14.32;100.00
20156;BME280;10238;49.556;10.956;2023-06-10T04:50:54;98055.91;;;14.35;100.00
20156;BME280;10238;49.556;10.956;2023-06-10T04:53:42;98046.78;;;14.44;100.00
20156;BME280;10238;49.556;10.956;2023-06-10T04:56:31;98052.75;;;14.46;100.00
20156;BME280;10238;49.556;10.956;2023-06-10T04:59:18;98054.69;;;14.52;100.00
20156;BME280;10238;49.556;10.956;2023-06-10T05:02:07;98067.50;;;14.57;100.00
20156;BME280;10238;49.556;10.956;2023-06-10T05:04:55;98057.91;;;14.62;100.00
20156;BME280;10238;49.556;10.956;2023-06-10T05:07:44;98063.91;;;14.64;100.00
20156;BME280;10238;49.556;10.956;2023-06-10T05:10:32;98067.03;;;14.68;100.00
20156;BME280;10238;49.556;10.956;2023-06-10T05:13:20;98067.47;;;14.71;100.00
20156;BME280;10238;49.556;10.956;2023-06-10T05:16:07;98065.53;;;14.80;100.00
20156;BME280;10238;49.556;10.956;2023-06-10T05:18:57;98066.63;;;14.85;100.00
20156;BME280;10238;49.556;10.956;2023-06-10T05:21:51;98070.44;;;14.97;100.00
20156;BME280;10238;49.556;10.956;2023-06-10T05:24:38;98078.19;;;15.07;100.00
20156;BME280;10238;49.556;10.956;2023-06-10T05:27:26;98077.88;;;15.16;100.00
20156;BME280;10238;49.556;10.956;2023-06-10T05:30:14;98084.38;;;15.29;100.00
20156;BME280;10238;49.556;10.956;2023-06-10T05:33:02;98090.47;;;15.37;100.00
20156;BME280;10238;49.556;10.956;2023-06-10T05:35:54;98092.59;;;15.42;100.00
20156;BME280;10238;49.556;10.956;2023-06-10T05:38:42;98092.28;;;15.51;100.00
20156;BME280;10238;49.556;10.956;2023-06-10T05:41:30;98091.09;;;15.60;100.00
20156;BME280;10238;49.556;10.956;2023-06-10T05:44:17;98086.69;;;15.74;100.00
20156;BME280;10238;49.556;10.956;2023-06-10T05:47:05;98085.53;;;15.83;100.00
20156;BME280;10238;49.556;10.956;2023-06-10T05:49:53;98085.25;;;15.99;100.00
20156;BME280;10238;49.556;10.956;2023-06-10T05:52:41;98071.31;;;16.10;100.00
20156;BME280;10238;49.556;10.956;2023-06-10T05:55:34;98070.16;;;16.25;100.00
20156;BME280;10238;49.556;10.956;2023-06-10T05:58:22;98076.44;;;16.39;100.00
20156;BME280;10238;49.556;10.956;2023-06-10T06:01:10;98080.88;;;16.53;100.00
20156;BME280;10238;49.556;10.956;2023-06-10T06:03:58;98076.63;;;16.71;100.00
20156;BME280;10238;49.556;10.956;2023-06-10T06:06:45;98077.56;;;16.91;100.00
20156;BME280;10238;49.556;10.956;2023-06-10T06:09:41;98079.28;;;17.12;100.00
20156;BME280;10238;49.556;10.956;2023-06-10T06:12:29;98074.56;;;17.40;100.00
20156;BME280;10238;49.556;10.956;2023-06-10T06:15:17;98068.00;;;17.62;100.00
20156;BME280;10238;49.556;10.956;2023-06-10T06:18:08;98069.03;;;17.87;100.00
20156;BME280;10238;49.556;10.956;2023-06-10T06:24:26;98063.59;;;18.46;100.00
20156;BME280;10238;49.556;10.956;2023-06-10T06:27:17;98061.03;;;18.70;100.00
20156;BME280;10238;49.556;10.956;2023-06-10T06:31:25;98061.66;;;19.16;100.00
20156;BME280;10238;49.556;10.956;2023-06-10T06:34:12;98058.00;;;19.42;100.00
20156;BME280;10238;49.556;10.956;2023-06-10T06:37:03;98055.16;;;19.62;100.00
20156;BME280;10238;49.556;10.956;2023-06-10T06:39:58;98057.59;;;19.94;100.00
20156;BME280;10238;49.556;10.956;2023-06-10T06:43:05;98055.66;;;20.26;100.00
20156;BME280;10238;49.556;10.956;2023-06-10T06:45:59;98053.19;;;20.60;100.00
20156;BME280;10238;49.556;10.956;2023-06-10T06:49:17;98046.75;;;20.79;100.00
20156;BME280;10238;49.556;10.956;2023-06-10T06:52:09;98049.44;;;21.15;100.00
20156;BME280;10238;49.556;10.956;2023-06-10T06:54:56;98051.06;;;21.46;100.00
20156;BME280;10238;49.556;10.956;2023-06-10T06:57:44;98044.63;;;21.59;100.00
20156;BME280;10238;49.556;10.956;2023-06-10T07:00:33;98039.41;;;21.75;100.00
20156;BME280;10238;49.556;10.956;2023-06-10T07:03:21;98040.34;;;22.15;100.00
20156;BME280;10238;49.556;10.956;2023-06-10T07:06:13;98036.38;;;22.52;100.00
20156;BME280;10238;49.556;10.956;2023-06-10T07:09:01;98039.16;;;22.80;100.00
20156;BME280;10238;49.556;10.956;2023-06-10T07:11:48;98033.75;;;23.08;100.00
20156;BME280;10238;49.556;10.956;2023-06-10T07:14:58;98038.75;;;23.28;100.00
20156;BME280;10238;49.556;10.956;2023-06-10T07:17:58;98037.59;;;23.52;100.00
20156;BME280;10238;49.556;10.956;2023-06-10T07:20:45;98050.28;;;23.80;100.00
20156;BME280;10238;49.556;10.956;2023-06-10T07:23:42;98044.72;;;24.19;97.50
20156;BME280;10238;49.556;10.956;2023-06-10T07:26:57;98033.97;;;24.46;95.24
20156;BME280;10238;49.556;10.956;2023-06-10T07:29:45;98048.13;;;24.48;96.19
20156;BME280;10238;49.556;10.956;2023-06-10T07:32:33;98037.56;;;24.68;94.98
20156;BME280;10238;49.556;10.956;2023-06-10T07:35:21;98037.53;;;25.11;92.27
20156;BME280;10238;49.556;10.956;2023-06-10T07:38:09;98037.59;;;25.38;89.54
20156;BME280;10238;49.556;10.956;2023-06-10T07:40:57;98033.50;;;25.62;88.35
20156;BME280;10238;49.556;10.956;2023-06-10T07:43:45;98028.22;;;25.82;86.75
20156;BME280;10238;49.556;10.956;2023-06-10T07:46:33;98021.66;;;26.09;85.04
20156;BME280;10238;49.556;10.956;2023-06-10T07:49:20;98027.16;;;26.14;82.14
20156;BME280;10238;49.556;10.956;2023-06-10T07:52:09;98028.41;;;26.38;84.13
20156;BME280;10238;49.556;10.956;2023-06-10T07:54:57;98021.22;;;26.64;83.96
20156;BME280;10238;49.556;10.956;2023-06-10T07:57:45;98023.78;;;26.90;79.79
20156;BME280;10238;49.556;10.956;2023-06-10T08:00:33;98023.31;;;27.08;80.79
20156;BME280;10238;49.556;10.956;2023-06-10T08:03:21;98017.72;;;27.40;81.07
20156;BME280;10238;49.556;10.956;2023-06-10T08:06:09;98013.63;;;27.63;75.30
20156;BME280;10238;49.556;10.956;2023-06-10T08:08:59;98007.09;;;27.79;74.53
20156;BME280;10238;49.556;10.956;2023-06-10T08:11:47;98002.47;;;27.99;72.96
20156;BME280;10238;49.556;10.956;2023-06-10T08:14:35;98002.75;;;27.98;75.39
20156;BME280;10238;49.556;10.956;2023-06-10T08:17:23;98001.94;;;28.02;70.17
20156;BME280;10238;49.556;10.956;2023-06-10T08:20:11;98006.25;;;28.43;73.28
20156;BME280;10238;49.556;10.956;2023-06-10T08:22:58;97996.28;;;28.82;69.08
20156;BME280;10238;49.556;10.956;2023-06-10T08:25:47;98004.66;;;28.07;62.30
20156;BME280;10238;49.556;10.956;2023-06-10T08:28:35;97997.19;;;28.53;71.06
20156;BME280;10238;49.556;10.956;2023-06-10T08:31:23;97988.84;;;28.98;66.68
20156;BME280;10238;49.556;10.956;2023-06-10T08:34:10;98003.84;;;29.15;64.31
20156;BME280;10238;49.556;10.956;2023-06-10T08:36:58;98000.75;;;29.27;63.30
20156;BME280;10238;49.556;10.956;2023-06-10T08:39:51;97990.44;;;29.09;60.79
20156;BME280;10238;49.556;10.956;2023-06-10T08:42:47;97992.09;;;29.00;66.03
20156;BME280;10238;49.556;10.956;2023-06-10T08:45:37;97993.78;;;28.96;67.30
20156;BME280;10238;49.556;10.956;2023-06-10T08:48:29;97993.84;;;29.78;66.26
20156;BME280;10238;49.556;10.956;2023-06-10T08:51:18;97992.38;;;30.24;61.32
20156;BME280;10238;49.556;10.956;2023-06-10T08:54:22;97987.78;;;30.43;59.34
20156;BME280;10238;49.556;10.956;2023-06-10T08:57:13;97983.09;;;30.15;57.53
20156;BME280;10238;49.556;10.956;2023-06-10T09:00:05;97983.63;;;30.22;56.47
20156;BME280;10238;49.556;10.956;2023-06-10T09:02:56;97973.13;;;30.29;55.61
20156;BME280;10238;49.556;10.956;2023-06-10T09:05:48;97985.63;;;30.40;58.76
20156;BME280;10238;49.556;10.956;2023-06-10T09:08:36;97979.25;;;30.16;57.63
20156;BME280;10238;49.556;10.956;2023-06-10T09:11:26;97979.06;;;30.36;55.61
20156;BME280;10238;49.556;10.956;2023-06-10T09:14:14;97968.88;;;30.65;56.38
20156;BME280;10238;49.556;10.956;2023-06-10T09:17:06;97971.28;;;31.14;57.79
20156;BME280;10238;49.556;10.956;2023-06-10T09:19:54;97962.34;;;31.27;58.07
20156;BME280;10238;49.556;10.956;2023-06-10T09:22:43;97957.13;;;31.44;56.62
20156;BME280;10238;49.556;10.956;2023-06-10T09:25:37;97968.94;;;31.82;55.96
20156;BME280;10238;49.556;10.956;2023-06-10T09:28:25;97962.88;;;31.98;54.72
20156;BME280;10238;49.556;10.956;2023-06-10T09:31:13;97965.50;;;31.90;52.44
20156;BME280;10238;49.556;10.956;2023-06-10T09:34:10;97967.75;;;31.51;51.34
20156;BME280;10238;49.556;10.956;2023-06-10T09:36:58;97968.91;;;31.07;51.92
20156;BME280;10238;49.556;10.956;2023-06-10T09:40:03;97960.94;;;31.06;54.79
20156;BME280;10238;49.556;10.956;2023-06-10T09:42:55;97967.00;;;30.61;53.65
20156;BME280;10238;49.556;10.956;2023-06-10T09:45:42;97966.66;;;30.67;57.00
20156;BME280;10238;49.556;10.956;2023-06-10T09:48:35;97964.50;;;30.64;54.25
20156;BME280;10238;49.556;10.956;2023-06-10T09:51:25;97965.59;;;30.63;57.52
20156;BME280;10238;49.556;10.956;2023-06-10T09:54:12;97967.75;;;30.90;55.99
20156;BME280;10238;49.556;10.956;2023-06-10T09:57:08;97967.47;;;30.91;54.72
20156;BME280;10238;49.556;10.956;2023-06-10T09:59:56;97977.34;;;30.45;54.23
20156;BME280;10238;49.556;10.956;2023-06-10T10:02:46;97970.56;;;30.61;53.40
20156;BME280;10238;49.556;10.956;2023-06-10T10:05:34;97968.81;;;30.70;56.43
20156;BME280;10238;49.556;10.956;2023-06-10T10:08:24;97967.63;;;30.29;51.36
20156;BME280;10238;49.556;10.956;2023-06-10T10:11:14;97967.22;;;30.12;55.13
20156;BME280;10238;49.556;10.956;2023-06-10T10:14:04;97969.91;;;30.93;55.37
20156;BME280;10238;49.556;10.956;2023-06-10T10:16:56;97964.91;;;31.56;53.96
20156;BME280;10238;49.556;10.956;2023-06-10T10:19:48;97965.69;;;31.00;52.50
20156;BME280;10238;49.556;10.956;2023-06-10T10:22:39;97956.94;;;30.98;52.51
20156;BME280;10238;49.556;10.956;2023-06-10T10:25:37;97968.25;;;30.73;53.70
20156;BME280;10238;49.556;10.956;2023-06-10T10:28:34;97964.03;;;30.57;54.18
20156;BME280;10238;49.556;10.956;2023-06-10T10:31:28;97971.25;;;29.91;55.72
20156;BME280;10238;49.556;10.956;2023-06-10T10:34:24;97971.69;;;29.31;52.94
20156;BME280;10238;49.556;10.956;2023-06-10T10:37:14;97967.75;;;30.14;59.16
20156;BME280;10238;49.556;10.956;2023-06-10T10:40:04;97958.19;;;30.87;58.59
20156;BME280;10238;49.556;10.956;2023-06-10T10:42:58;97963.59;;;31.35;55.91
20156;BME280;10238;49.556;10.956;2023-06-10T10:45:57;97964.19;;;31.32;53.80
20156;BME280;10238;49.556;10.956;2023-06-10T10:48:52;97963.00;;;31.38;52.91
20156;BME280;10238;49.556;10.956;2023-06-10T10:51:55;97963.50;;;31.40;51.77
20156;BME280;10238;49.556;10.956;2023-06-10T10:54:45;97952.25;;;31.17;49.22
20156;BME280;10238;49.556;10.956;2023-06-10T10:57:39;97954.06;;;31.08;51.88
20156;BME280;10238;49.556;10.956;2023-06-10T11:00:35;97965.31;;;30.88;53.63
20156;BME280;10238;49.556;10.956;2023-06-10T11:03:28;97955.81;;;30.57;49.08
20156;BME280;10238;49.556;10.956;2023-06-10T11:06:18;97963.03;;;30.95;53.82
20156;BME280;10238;49.556;10.956;2023-06-10T11:09:26;97953.16;;;30.94;53.27
20156;BME280;10238;49.556;10.956;2023-06-10T11:12:22;97955.50;;;30.35;51.75
20156;BME280;10238;49.556;10.956;2023-06-10T11:15:11;97956.09;;;30.56;57.32
20156;BME280;10238;49.556;10.956;2023-06-10T11:18:29;97971.13;;;30.06;55.85
20156;BME280;10238;49.556;10.956;2023-06-10T11:21:24;97969.47;;;30.05;52.90
20156;BME280;10238;49.556;10.956;2023-06-10T11:24:14;97975.25;;;29.75;52.14
20156;BME280;10238;49.556;10.956;2023-06-10T11:27:17;97979.97;;;29.60;53.11
20156;BME280;10238;49.556;10.956;2023-06-10T11:30:19;97971.25;;;29.58;58.04
20156;BME280;10238;49.556;10.956;2023-06-10T11:33:48;97983.38;;;29.85;56.76
20156;BME280;10238;49.556;10.956;2023-06-10T11:36:43;97986.16;;;29.80;56.58
20156;BME280;10238;49.556;10.956;2023-06-10T11:39:32;97970.25;;;30.11;55.96
20156;BME280;10238;49.556;10.956;2023-06-10T11:42:24;97962.16;;;30.29;57.09
20156;BME280;10238;49.556;10.956;2023-06-10T11:45:15;97957.94;;;30.08;58.11
20156;BME280;10238;49.556;10.956;2023-06-10T11:48:04;97951.00;;;30.16;57.25
20156;BME280;10238;49.556;10.956;2023-06-10T11:50:53;97955.31;;;30.50;58.42
20156;BME280;10238;49.556;10.956;2023-06-10T11:53:43;97947.03;;;30.55;56.88
20156;BME280;10238;49.556;10.956;2023-06-10T11:56:32;97949.06;;;30.73;56.89
20156;BME280;10238;49.556;10.956;2023-06-10T11:59:27;97953.03;;;30.81;57.93
20156;BME280;10238;49.556;10.956;2023-06-10T12:02:16;97951.00;;;30.91;56.89
20156;BME280;10238;49.556;10.956;2023-06-10T12:05:11;97941.06;;;30.95;55.92
20156;BME280;10238;49.556;10.956;2023-06-10T12:08:11;97949.00;;;31.53;57.64
20156;BME280;10238;49.556;10.956;2023-06-10T12:10:59;97941.28;;;31.92;52.68
20156;BME280;10238;49.556;10.956;2023-06-10T12:13:49;97942.00;;;31.47;50.74
20156;BME280;10238;49.556;10.956;2023-06-10T12:16:37;97940.94;;;31.61;48.42
20156;BME280;10238;49.556;10.956;2023-06-10T12:19:25;97941.47;;;31.45;50.67
20156;BME280;10238;49.556;10.956;2023-06-10T12:22:14;97938.38;;;31.09;58.76
20156;BME280;10238;49.556;10.956;2023-06-10T12:25:06;97944.06;;;31.55;57.75
20156;BME280;10238;49.556;10.956;2023-06-10T12:27:57;97938.41;;;31.97;57.44
20156;BME280;10238;49.556;10.956;2023-06-10T12:30:45;97943.63;;;31.80;54.02
20156;BME280;10238;49.556;10.956;2023-06-10T12:33:33;97939.94;;;31.15;57.32
20156;BME280;10238;49.556;10.956;2023-06-10T12:36:20;97935.41;;;31.29;52.08
20156;BME280;10238;49.556;10.956;2023-06-10T12:39:09;97927.59;;;31.87;53.59
20156;BME280;10238;49.556;10.956;2023-06-10T12:41:59;97931.75;;;32.30;55.17
20156;BME280;10238;49.556;10.956;2023-06-10T12:44:54;97922.31;;;31.90;55.08
20156;BME280;10238;49.556;10.956;2023-06-10T12:47:47;97918.47;;;31.73;55.51
20156;BME280;10238;49.556;10.956;2023-06-10T12:50:35;97927.41;;;30.90;50.18
20156;BME280;10238;49.556;10.956;2023-06-10T12:53:25;97924.22;;;31.20;49.14
20156;BME280;10238;49.556;10.956;2023-06-10T12:56:14;97915.63;;;31.78;52.76
20156;BME280;10238;49.556;10.956;2023-06-10T12:59:03;97917.19;;;31.84;48.54
20156;BME280;10238;49.556;10.956;2023-06-10T13:01:55;97909.78;;;31.66;50.82
20156;BME280;10238;49.556;10.956;2023-06-10T13:04:44;97909.88;;;31.23;47.82
20156;BME280;10238;49.556;10.956;2023-06-10T13:07:31;97900.19;;;30.94;50.20
20156;BME280;10238;49.556;10.956;2023-06-10T13:10:20;97901.28;;;31.49;46.99
20156;BME280;10238;49.556;10.956;2023-06-10T13:13:11;97907.72;;;31.20;45.88
20156;BME280;10238;49.556;10.956;2023-06-10T13:16:02;97909.16;;;31.87;49.78
20156;BME280;10238;49.556;10.956;2023-06-10T13:18:50;97903.13;;;32.85;52.17
20156;BME280;10238;49.556;10.956;2023-06-10T13:21:38;97888.72;;;33.59;46.35
20156;BME280;10238;49.556;10.956;2023-06-10T13:24:26;97890.16;;;33.57;45.62
20156;BME280;10238;49.556;10.956;2023-06-10T13:27:14;97877.81;;;33.32;50.15
20156;BME280;10238;49.556;10.956;2023-06-10T13:30:03;97888.22;;;32.86;49.04
20156;BME280;10238;49.556;10.956;2023-06-10T13:32:52;97884.38;;;32.87;46.33
20156;BME280;10238;49.556;10.956;2023-06-10T13:35:40;97884.66;;;32.72;48.80
20156;BME280;10238;49.556;10.956;2023-06-10T13:38:28;97885.66;;;31.95;47.06
20156;BME280;10238;49.556;10.956;2023-06-10T13:41:15;97885.97;;;31.75;47.28
20156;BME280;10238;49.556;10.956;2023-06-10T13:44:03;97890.44;;;31.71;47.14
20156;BME280;10238;49.556;10.956;2023-06-10T13:46:53;97887.25;;;31.82;46.43
20156;BME280;10238;49.556;10.956;2023-06-10T13:49:42;97881.19;;;32.26;48.10
20156;BME280;10238;49.556;10.956;2023-06-10T13:52:30;97888.16;;;32.50;45.88
20156;BME280;10238;49.556;10.956;2023-06-10T13:55:17;97885.88;;;32.79;46.14
20156;BME280;10238;49.556;10.956;2023-06-10T13:58:06;97876.06;;;33.00;44.81
20156;BME280;10238;49.556;10.956;2023-06-10T14:00:53;97881.25;;;33.02;45.39
20156;BME280;10238;49.556;10.956;2023-06-10T14:03:42;97882.75;;;32.45;43.80
20156;BME280;10238;49.556;10.956;2023-06-10T14:06:33;97885.50;;;32.18;45.74
20156;BME280;10238;49.556;10.956;2023-06-10T14:09:21;97883.53;;;32.19;45.99
20156;BME280;10238;49.556;10.956;2023-06-10T14:12:09;97888.72;;;32.20;46.07
20156;BME280;10238;49.556;10.956;2023-06-10T14:14:57;97883.31;;;32.29;45.24
20156;BME280;10238;49.556;10.956;2023-06-10T14:17:45;97893.38;;;31.93;46.26
20156;BME280;10238;49.556;10.956;2023-06-10T14:20:33;97889.00;;;31.60;47.83
20156;BME280;10238;49.556;10.956;2023-06-10T14:23:22;97892.88;;;31.91;47.66
20156;BME280;10238;49.556;10.956;2023-06-10T14:26:11;97887.13;;;32.46;47.33
20156;BME280;10238;49.556;10.956;2023-06-10T14:28:59;97887.63;;;32.89;46.75
20156;BME280;10238;49.556;10.956;2023-06-10T14:31:46;97881.16;;;33.07;46.62
20156;BME280;10238;49.556;10.956;2023-06-10T14:34:34;97882.44;;;33.23;45.03
20156;BME280;10238;49.556;10.956;2023-06-10T14:37:25;97883.66;;;33.53;43.99
20156;BME280;10238;49.556;10.956;2023-06-10T14:40:15;97874.53;;;33.96;43.64
20156;BME280;10238;49.556;10.956;2023-06-10T14:43:03;97882.94;;;33.91;42.16
20156;BME280;10238;49.556;10.956;2023-06-10T14:45:56;97883.97;;;32.39;44.80
20156;BME280;10238;49.556;10.956;2023-06-10T14:48:44;97887.94;;;32.47;46.14